sensor_id;sensor_type;location;lat;lon;timestamp;pressure;altitude;pressure_sealevel;temperature
11321;BMP180;5715;48.234;14.320;2023-07-22T00:02:20;98389.00;;;24.90
11321;BMP180;5715;48.234;14.320;2023-07-22T00:05:10;98391.00;;;25.10
11321;BMP180;5715;48.234;14.320;2023-07-22T00:07:57;98393.00;;;25.30
11321;BMP180;5715;48.234;14.320;2023-07-22T00:10:45;98392.00;;;25.30
11321;BMP180;5715;48.234;14.320;2023-07-22T00:13:33;98405.00;;;25.10
11321;BMP180;5715;48.234;14.320;2023-07-22T00:16:21;98396.00;;;24.90
11321;BMP180;5715;48.234;14.320;2023-07-22T00:19:08;98404.00;;;25.30
11321;BMP180;5715;48.234;14.320;2023-07-22T00:21:56;98409.00;;;25.30
11321;BMP180;5715;48.234;14.320;2023-07-22T00:24:43;98416.00;;;25.10
11321;BMP180;5715;48.234;14.320;2023-07-22T00:27:31;98418.00;;;25.30
11321;BMP180;5715;48.234;14.320;2023-07-22T00:30:19;98419.00;;;25.20
11321;BMP180;5715;48.234;14.320;2023-07-22T00:33:06;98427.00;;;25.50
11321;BMP180;5715;48.234;14.320;2023-07-22T00:35:54;98428.00;;;25.50
11321;BMP180;5715;48.234;14.320;2023-07-22T00:38:42;98426.00;;;25.60
11321;BMP180;5715;48.234;14.320;2023-07-22T00:41:30;98424.00;;;25.80
11321;BMP180;5715;48.234;14.320;2023-07-22T00:44:18;98427.00;;;25.80
11321;BMP180;5715;48.234;14.320;2023-07-22T00:47:06;98428.00;;;25.50
11321;BMP180;5715;48.234;14.320;2023-07-22T00:49:54;98433.00;;;25.60
11321;BMP180;5715;48.234;14.320;2023-07-22T00:52:43;98429.00;;;25.60
11321;BMP180;5715;48.234;14.320;2023-07-22T00:55:34;98427.00;;;25.50
11321;BMP180;5715;48.234;14.320;2023-07-22T00:58:22;98425.00;;;25.70
11321;BMP180;5715;48.234;14.320;2023-07-22T01:01:10;98415.00;;;25.70
11321;BMP180;5715;48.234;14.320;2023-07-22T01:03:58;98431.00;;;25.60
11321;BMP180;5715;48.234;14.320;2023-07-22T01:06:47;98423.00;;;25.40
11321;BMP180;5715;48.234;14.320;2023-07-22T01:09:42;98431.00;;;25.60
11321;BMP180;5715;48.234;14.320;2023-07-22T01:12:32;98426.00;;;25.70
11321;BMP180;5715;48.234;14.320;2023-07-22T01:15:21;98421.00;;;25.60
11321;BMP180;5715;48.234;14.320;2023-07-22T01:18:09;98428.00;;;25.60
11321;BMP180;5715;48.234;14.320;2023-07-22T01:20:56;98421.00;;;25.60
11321;BMP180;5715;48.234;14.320;2023-07-22T01:23:44;98424.00;;;25.70
11321;BMP180;5715;48.234;14.320;2023-07-22T01:26:32;98432.00;;;25.10
11321;BMP180;5715;48.234;14.320;2023-07-22T01:29:21;98435.00;;;25.50
11321;BMP180;5715;48.234;14.320;2023-07-22T01:32:09;98434.00;;;25.30
11321;BMP180;5715;48.234;14.320;2023-07-22T01:34:56;98437.00;;;25.20
11321;BMP180;5715;48.234;14.320;2023-07-22T01:37:45;98437.00;;;25.30
11321;BMP180;5715;48.234;14.320;2023-07-22T01:40:32;98433.00;;;25.50
11321;BMP180;5715;48.234;14.320;2023-07-22T01:43:20;98437.00;;;25.20
11321;BMP180;5715;48.234;14.320;2023-07-22T01:46:08;98440.00;;;25.00
11321;BMP180;5715;48.234;14.320;2023-07-22T01:48:56;98443.00;;;25.30
11321;BMP180;5715;48.234;14.320;2023-07-22T01:51:44;98436.00;;;25.30
11321;BMP180;5715;48.234;14.320;2023-07-22T01:54:32;98446.00;;;25.30
11321;BMP180;5715;48.234;14.320;2023-07-22T01:57:20;98449.00;;;25.40
11321;BMP180;5715;48.234;14.320;2023-07-22T02:00:08;98446.00;;;25.30
11321;BMP180;5715;48.234;14.320;2023-07-22T02:02:58;98442.00;;;25.10
11321;BMP180;5715;48.234;14.320;2023-07-22T02:05:46;98446.00;;;24.90
11321;BMP180;5715;48.234;14.320;2023-07-22T02:08:34;98453.00;;;24.60
11321;BMP180;5715;48.234;14.320;2023-07-22T02:11:21;98454.00;;;24.40
11321;BMP180;5715;48.234;14.320;2023-07-22T02:14:09;98457.00;;;24.10
11321;BMP180;5715;48.234;14.320;2023-07-22T02:16:56;98454.00;;;24.10
11321;BMP180;5715;48.234;14.320;2023-07-22T02:19:44;98468.00;;;24.20
11321;BMP180;5715;48.234;14.320;2023-07-22T02:22:31;98466.00;;;24.10
11321;BMP180;5715;48.234;14.320;2023-07-22T02:25:19;98468.00;;;24.20
11321;BMP180;5715;48.234;14.320;2023-07-22T02:28:06;98470.00;;;24.00
11321;BMP180;5715;48.234;14.320;2023-07-22T02:30:54;98473.00;;;24.30
11321;BMP180;5715;48.234;14.320;2023-07-22T02:33:42;98477.00;;;24.20
11321;BMP180;5715;48.234;14.320;2023-07-22T02:36:29;98478.00;;;24.30
11321;BMP180;5715;48.234;14.320;2023-07-22T02:39:17;98481.00;;;24.20
11321;BMP180;5715;48.234;14.320;2023-07-22T02:42:05;98485.00;;;24.30
11321;BMP180;5715;48.234;14.320;2023-07-22T02:44:52;98487.00;;;24.60
11321;BMP180;5715;48.234;14.320;2023-07-22T02:47:40;98502.00;;;24.40
11321;BMP180;5715;48.234;14.320;2023-07-22T02:50:28;98502.00;;;24.20
11321;BMP180;5715;48.234;14.320;2023-07-22T02:53:15;98507.00;;;24.50
11321;BMP180;5715;48.234;14.320;2023-07-22T02:56:04;98503.00;;;24.50
11321;BMP180;5715;48.234;14.320;2023-07-22T02:58:54;98509.00;;;24.50
11321;BMP180;5715;48.234;14.320;2023-07-22T03:01:41;98516.00;;;24.50
11321;BMP180;5715;48.234;14.320;2023-07-22T03:04:29;98512.00;;;24.30
11321;BMP180;5715;48.234;14.320;2023-07-22T03:07:17;98519.00;;;24.30
11321;BMP180;5715;48.234;14.320;2023-07-22T03:10:08;98519.00;;;24.10
11321;BMP180;5715;48.234;14.320;2023-07-22T03:12:56;98520.00;;;24.10
11321;BMP180;5715;48.234;14.320;2023-07-22T03:15:44;98520.00;;;24.10
11321;BMP180;5715;48.234;14.320;2023-07-22T03:18:32;98524.00;;;23.90
11321;BMP180;5715;48.234;14.320;2023-07-22T03:21:19;98535.00;;;24.00
11321;BMP180;5715;48.234;14.320;2023-07-22T03:24:07;98527.00;;;24.00
11321;BMP180;5715;48.234;14.320;2023-07-22T03:26:54;98536.00;;;24.10
11321;BMP180;5715;48.234;14.320;2023-07-22T03:29:42;98539.00;;;24.00
11321;BMP180;5715;48.234;14.320;2023-07-22T03:32:29;98541.00;;;23.90
11321;BMP180;5715;48.234;14.320;2023-07-22T03:35:17;98541.00;;;23.80
11321;BMP180;5715;48.234;14.320;2023-07-22T03:38:06;98544.00;;;23.80
11321;BMP180;5715;48.234;14.320;2023-07-22T03:40:54;98536.00;;;23.60
11321;BMP180;5715;48.234;14.320;2023-07-22T03:43:41;98529.00;;;23.60
11321;BMP180;5715;48.234;14.320;2023-07-22T03:46:29;98535.00;;;23.50
11321;BMP180;5715;48.234;14.320;2023-07-22T03:49:17;98538.00;;;23.70
11321;BMP180;5715;48.234;14.320;2023-07-22T03:52:05;98547.00;;;23.50
11321;BMP180;5715;48.234;14.320;2023-07-22T03:54:52;98549.00;;;23.40
11321;BMP180;5715;48.234;14.320;2023-07-22T03:57:40;98555.00;;;23.40
11321;BMP180;5715;48.234;14.320;2023-07-22T04:00:28;98547.00;;;23.70
11321;BMP180;5715;48.234;14.320;2023-07-22T04:03:15;98562.00;;;23.90
11321;BMP180;5715;48.234;14.320;2023-07-22T04:06:03;98558.00;;;24.00
11321;BMP180;5715;48.234;14.320;2023-07-22T04:08:52;98565.00;;;24.00
11321;BMP180;5715;48.234;14.320;2023-07-22T04:11:39;98560.00;;;23.90
11321;BMP180;5715;48.234;14.320;2023-07-22T04:14:27;98568.00;;;23.90
11321;BMP180;5715;48.234;14.320;2023-07-22T04:17:14;98565.00;;;23.90
11321;BMP180;5715;48.234;14.320;2023-07-22T04:20:03;98569.00;;;23.60
11321;BMP180;5715;48.234;14.320;2023-07-22T04:22:51;98569.00;;;24.10
11321;BMP180;5715;48.234;14.320;2023-07-22T04:25:43;98575.00;;;24.70
11321;BMP180;5715;48.234;14.320;2023-07-22T04:28:31;98581.00;;;24.80
11321;BMP180;5715;48.234;14.320;2023-07-22T04:31:19;98579.00;;;25.00
11321;BMP180;5715;48.234;14.320;2023-07-22T04:34:06;98578.00;;;25.10
11321;BMP180;5715;48.234;14.320;2023-07-22T04:36:55;98576.00;;;25.40
11321;BMP180;5715;48.234;14.320;2023-07-22T04:39:48;98579.00;;;26.30
11321;BMP180;5715;48.234;14.320;2023-07-22T04:42:36;98581.00;;;26.40
11321;BMP180;5715;48.234;14.320;2023-07-22T04:45:24;98594.00;;;26.70
11321;BMP180;5715;48.234;14.320;2023-07-22T04:48:11;98589.00;;;27.10
11321;BMP180;5715;48.234;14.320;2023-07-22T04:50:59;98600.00;;;27.30
11321;BMP180;5715;48.234;14.320;2023-07-22T04:53:46;98599.00;;;27.40
11321;BMP180;5715;48.234;14.320;2023-07-22T04:56:34;98600.00;;;27.80
11321;BMP180;5715;48.234;14.320;2023-07-22T04:59:22;98600.00;;;28.00
11321;BMP180;5715;48.234;14.320;2023-07-22T05:02:09;98602.00;;;28.80
11321;BMP180;5715;48.234;14.320;2023-07-22T05:04:57;98600.00;;;27.60
11321;BMP180;5715;48.234;14.320;2023-07-22T05:07:45;98611.00;;;28.30
11321;BMP180;5715;48.234;14.320;2023-07-22T05:10:32;98607.00;;;27.80
11321;BMP180;5715;48.234;14.320;2023-07-22T05:13:20;98605.00;;;27.90
11321;BMP180;5715;48.234;14.320;2023-07-22T05:16:08;98600.00;;;29.10
11321;BMP180;5715;48.234;14.320;2023-07-22T05:18:56;98600.00;;;28.70
11321;BMP180;5715;48.234;14.320;2023-07-22T05:21:43;98597.00;;;28.50
11321;BMP180;5715;48.234;14.320;2023-07-22T05:24:34;98598.00;;;29.30
11321;BMP180;5715;48.234;14.320;2023-07-22T05:27:21;98596.00;;;28.90
11321;BMP180;5715;48.234;14.320;2023-07-22T05:30:09;98597.00;;;29.30
11321;BMP180;5715;48.234;14.320;2023-07-22T05:33:17;98596.00;;;29.20
11321;BMP180;5715;48.234;14.320;2023-07-22T05:36:05;98585.00;;;28.90
11321;BMP180;5715;48.234;14.320;2023-07-22T05:38:53;98588.00;;;28.80
11321;BMP180;5715;48.234;14.320;2023-07-22T05:41:40;98590.00;;;29.10
11321;BMP180;5715;48.234;14.320;2023-07-22T05:44:28;98577.00;;;29.40
11321;BMP180;5715;48.234;14.320;2023-07-22T05:47:16;98585.00;;;29.10
11321;BMP180;5715;48.234;14.320;2023-07-22T05:50:06;98577.00;;;28.90
11321;BMP180;5715;48.234;14.320;2023-07-22T05:52:53;98584.00;;;28.90
11321;BMP180;5715;48.234;14.320;2023-07-22T05:55:41;98581.00;;;28.90
11321;BMP180;5715;48.234;14.320;2023-07-22T05:58:29;98585.00;;;29.30
11321;BMP180;5715;48.234;14.320;2023-07-22T06:01:16;98579.00;;;30.30
11321;BMP180;5715;48.234;14.320;2023-07-22T06:04:05;98586.00;;;29.10
11321;BMP180;5715;48.234;14.320;2023-07-22T06:06:52;98585.00;;;30.10
11321;BMP180;5715;48.234;14.320;2023-07-22T06:09:40;98580.00;;;30.30
11321;BMP180;5715;48.234;14.320;2023-07-22T06:12:27;98591.00;;;29.60
11321;BMP180;5715;48.234;14.320;2023-07-22T06:15:15;98592.00;;;29.60
11321;BMP180;5715;48.234;14.320;2023-07-22T06:18:03;98598.00;;;29.10
11321;BMP180;5715;48.234;14.320;2023-07-22T06:20:55;98602.00;;;28.40
11321;BMP180;5715;48.234;14.320;2023-07-22T06:23:42;98594.00;;;27.50
11321;BMP180;5715;48.234;14.320;2023-07-22T06:26:30;98594.00;;;27.00
11321;BMP180;5715;48.234;14.320;2023-07-22T06:29:17;98591.00;;;26.90
11321;BMP180;5715;48.234;14.320;2023-07-22T06:32:06;98584.00;;;26.60
11321;BMP180;5715;48.234;14.320;2023-07-22T06:34:53;98592.00;;;26.40
11321;BMP180;5715;48.234;14.320;2023-07-22T06:37:41;98592.00;;;26.40
11321;BMP180;5715;48.234;14.320;2023-07-22T06:40:28;98598.00;;;26.40
11321;BMP180;5715;48.234;14.320;2023-07-22T06:43:16;98594.00;;;26.70
11321;BMP180;5715;48.234;14.320;2023-07-22T06:46:03;98594.00;;;26.30
11321;BMP180;5715;48.234;14.320;2023-07-22T06:48:51;98602.00;;;26.10
11321;BMP180;5715;48.234;14.320;2023-07-22T06:51:38;98598.00;;;26.20
11321;BMP180;5715;48.234;14.320;2023-07-22T06:54:26;98598.00;;;26.60
11321;BMP180;5715;48.234;14.320;2023-07-22T06:57:13;98596.00;;;26.80
11321;BMP180;5715;48.234;14.320;2023-07-22T07:00:01;98601.00;;;27.20
11321;BMP180;5715;48.234;14.320;2023-07-22T07:02:50;98597.00;;;27.30
11321;BMP180;5715;48.234;14.320;2023-07-22T07:05:37;98601.00;;;27.50
11321;BMP180;5715;48.234;14.320;2023-07-22T07:08:28;98611.00;;;27.90
11321;BMP180;5715;48.234;14.320;2023-07-22T07:11:16;98612.00;;;28.00
11321;BMP180;5715;48.234;14.320;2023-07-22T07:14:04;98605.00;;;27.70
11321;BMP180;5715;48.234;14.320;2023-07-22T07:16:51;98606.00;;;27.20
11321;BMP180;5715;48.234;14.320;2023-07-22T07:19:39;98607.00;;;27.90
11321;BMP180;5715;48.234;14.320;2023-07-22T07:22:27;98600.00;;;27.60
11321;BMP180;5715;48.234;14.320;2023-07-22T07:25:14;98604.00;;;28.00
11321;BMP180;5715;48.234;14.320;2023-07-22T07:28:03;98596.00;;;27.90
11321;BMP180;5715;48.234;14.320;2023-07-22T07:30:51;98605.00;;;27.80
11321;BMP180;5715;48.234;14.320;2023-07-22T07:33:42;98608.00;;;27.60
11321;BMP180;5715;48.234;14.320;2023-07-22T07:36:29;98608.00;;;27.50
11321;BMP180;5715;48.234;14.320;2023-07-22T07:39:17;98610.00;;;27.10
11321;BMP180;5715;48.234;14.320;2023-07-22T07:42:05;98610.00;;;27.70
11321;BMP180;5715;48.234;14.320;2023-07-22T07:44:53;98608.00;;;27.40
11321;BMP180;5715;48.234;14.320;2023-07-22T07:47:40;98614.00;;;28.20
11321;BMP180;5715;48.234;14.320;2023-07-22T07:50:28;98617.00;;;28.10
11321;BMP180;5715;48.234;14.320;2023-07-22T07:53:16;98625.00;;;28.30
11321;BMP180;5715;48.234;14.320;2023-07-22T07:56:03;98634.00;;;27.90
11321;BMP180;5715;48.234;14.320;2023-07-22T07:58:53;98624.00;;;28.20
11321;BMP180;5715;48.234;14.320;2023-07-22T08:01:41;98624.00;;;29.00
11321;BMP180;5715;48.234;14.320;2023-07-22T08:04:29;98622.00;;;28.60
11321;BMP180;5715;48.234;14.320;2023-07-22T08:07:17;98619.00;;;28.80
11321;BMP180;5715;48.234;14.320;2023-07-22T08:10:06;98617.00;;;29.20
11321;BMP180;5715;48.234;14.320;2023-07-22T08:12:56;98613.00;;;29.40
11321;BMP180;5715;48.234;14.320;2023-07-22T08:15:44;98614.00;;;28.60
11321;BMP180;5715;48.234;14.320;2023-07-22T08:18:33;98614.00;;;29.40
11321;BMP180;5715;48.234;14.320;2023-07-22T08:21:20;98614.00;;;29.80
11321;BMP180;5715;48.234;14.320;2023-07-22T08:24:08;98618.00;;;30.50
11321;BMP180;5715;48.234;14.320;2023-07-22T08:26:56;98622.00;;;29.50
11321;BMP180;5715;48.234;14.320;2023-07-22T08:29:43;98622.00;;;29.60
11321;BMP180;5715;48.234;14.320;2023-07-22T08:32:31;98629.00;;;29.40
11321;BMP180;5715;48.234;14.320;2023-07-22T08:35:19;98622.00;;;29.70
11321;BMP180;5715;48.234;14.320;2023-07-22T08:38:07;98620.00;;;30.30
11321;BMP180;5715;48.234;14.320;2023-07-22T08:40:55;98632.00;;;29.90
11321;BMP180;5715;48.234;14.320;2023-07-22T08:43:45;98630.00;;;30.20
11321;BMP180;5715;48.234;14.320;2023-07-22T08:46:35;98637.00;;;30.50
11321;BMP180;5715;48.234;14.320;2023-07-22T08:49:26;98631.00;;;30.90
11321;BMP180;5715;48.234;14.320;2023-07-22T08:52:16;98624.00;;;30.90
11321;BMP180;5715;48.234;14.320;2023-07-22T08:55:05;98630.00;;;30.60
11321;BMP180;5715;48.234;14.320;2023-07-22T08:57:54;98630.00;;;30.90
11321;BMP180;5715;48.234;14.320;2023-07-22T09:00:43;98633.00;;;30.70
11321;BMP180;5715;48.234;14.320;2023-07-22T09:03:32;98633.00;;;30.50
11321;BMP180;5715;48.234;14.320;2023-07-22T09:06:20;98634.00;;;31.30
11321;BMP180;5715;48.234;14.320;2023-07-22T09:09:10;98637.00;;;30.70
11321;BMP180;5715;48.234;14.320;2023-07-22T09:12:00;98639.00;;;31.20
11321;BMP180;5715;48.234;14.320;2023-07-22T09:14:50;98646.00;;;30.80
11321;BMP180;5715;48.234;14.320;2023-07-22T09:17:39;98627.00;;;31.10
11321;BMP180;5715;48.234;14.320;2023-07-22T09:20:28;98623.00;;;31.30
11321;BMP180;5715;48.234;14.320;2023-07-22T09:23:16;98615.00;;;31.10
11321;BMP180;5715;48.234;14.320;2023-07-22T09:26:16;98606.00;;;31.20
11321;BMP180;5715;48.234;14.320;2023-07-22T09:29:04;98614.00;;;31.80
11321;BMP180;5715;48.234;14.320;2023-07-22T09:31:54;98615.00;;;30.90
11321;BMP180;5715;48.234;14.320;2023-07-22T09:34:55;98615.00;;;30.80
11321;BMP180;5715;48.234;14.320;2023-07-22T09:37:43;98610.00;;;30.40
11321;BMP180;5715;48.234;14.320;2023-07-22T09:40:30;98618.00;;;30.80
11321;BMP180;5715;48.234;14.320;2023-07-22T09:43:18;98619.00;;;31.40
11321;BMP180;5715;48.234;14.320;2023-07-22T09:46:10;98611.00;;;32.00
11321;BMP180;5715;48.234;14.320;2023-07-22T09:49:13;98604.00;;;31.50
11321;BMP180;5715;48.234;14.320;2023-07-22T09:52:09;98606.00;;;32.30
11321;BMP180;5715;48.234;14.320;2023-07-22T09:55:00;98604.00;;;32.00
11321;BMP180;5715;48.234;14.320;2023-07-22T09:57:52;98609.00;;;31.70
11321;BMP180;5715;48.234;14.320;2023-07-22T10:00:47;98601.00;;;32.10
11321;BMP180;5715;48.234;14.320;2023-07-22T10:03:38;98601.00;;;32.80
11321;BMP180;5715;48.234;14.320;2023-07-22T10:06:28;98598.00;;;32.80
11321;BMP180;5715;48.234;14.320;2023-07-22T10:09:17;98591.00;;;33.50
11321;BMP180;5715;48.234;14.320;2023-07-22T10:12:06;98590.00;;;33.00
11321;BMP180;5715;48.234;14.320;2023-07-22T10:14:55;98583.00;;;32.70
11321;BMP180;5715;48.234;14.320;2023-07-22T10:17:45;98581.00;;;32.60
11321;BMP180;5715;48.234;14.320;2023-07-22T10:20:33;98575.00;;;32.10
11321;BMP180;5715;48.234;14.320;2023-07-22T10:23:26;98573.00;;;32.90
11321;BMP180;5715;48.234;14.320;2023-07-22T10:26:18;98580.00;;;33.00
11321;BMP180;5715;48.234;14.320;2023-07-22T10:29:20;98567.00;;;31.80
11321;BMP180;5715;48.234;14.320;2023-07-22T10:32:07;98566.00;;;32.00
11321;BMP180;5715;48.234;14.320;2023-07-22T10:34:55;98570.00;;;31.90
11321;BMP180;5715;48.234;14.320;2023-07-22T10:37:45;98562.00;;;31.70
11321;BMP180;5715;48.234;14.320;2023-07-22T10:40:50;98569.00;;;31.60
11321;BMP180;5715;48.234;14.320;2023-07-22T10:43:38;98561.00;;;32.30
11321;BMP180;5715;48.234;14.320;2023-07-22T10:46:38;98568.00;;;32.30
11321;BMP180;5715;48.234;14.320;2023-07-22T10:49:47;98564.00;;;32.30
11321;BMP180;5715;48.234;14.320;2023-07-22T10:52:44;98566.00;;;33.40
11321;BMP180;5715;48.234;14.320;2023-07-22T10:55:32;98562.00;;;32.20
11321;BMP180;5715;48.234;14.320;2023-07-22T10:58:20;98561.00;;;31.30
11321;BMP180;5715;48.234;14.320;2023-07-22T11:07:06;98559.00;;;32.50
11321;BMP180;5715;48.234;14.320;2023-07-22T11:09:54;98554.00;;;32.20
11321;BMP180;5715;48.234;14.320;2023-07-22T11:12:45;98550.00;;;32.60
11321;BMP180;5715;48.234;14.320;2023-07-22T11:15:33;98546.00;;;32.80
11321;BMP180;5715;48.234;14.320;2023-07-22T11:18:20;98545.00;;;33.30
11321;BMP180;5715;48.234;14.320;2023-07-22T11:21:12;98528.00;;;33.40
11321;BMP180;5715;48.234;14.320;2023-07-22T11:24:04;98524.00;;;32.00
11321;BMP180;5715;48.234;14.320;2023-07-22T11:26:53;98509.00;;;31.50
11321;BMP180;5715;48.234;14.320;2023-07-22T11:29:41;98523.00;;;33.30
11321;BMP180;5715;48.234;14.320;2023-07-22T11:32:29;98512.00;;;33.50
11321;BMP180;5715;48.234;14.320;2023-07-22T11:35:16;98508.00;;;33.70
11321;BMP180;5715;48.234;14.320;2023-07-22T11:38:05;98507.00;;;33.90
11321;BMP180;5715;48.234;14.320;2023-07-22T11:40:52;98506.00;;;33.80
11321;BMP180;5715;48.234;14.320;2023-07-22T11:43:40;98499.00;;;33.90
11321;BMP180;5715;48.234;14.320;2023-07-22T11:46:28;98505.00;;;33.10
11321;BMP180;5715;48.234;14.320;2023-07-22T11:49:30;98498.00;;;33.70
11321;BMP180;5715;48.234;14.320;2023-07-22T11:52:18;98499.00;;;34.40
11321;BMP180;5715;48.234;14.320;2023-07-22T11:55:06;98497.00;;;33.90
11321;BMP180;5715;48.234;14.320;2023-07-22T11:57:55;98507.00;;;33.60
11321;BMP180;5715;48.234;14.320;2023-07-22T12:00:43;98510.00;;;34.10
11321;BMP180;5715;48.234;14.320;2023-07-22T12:03:56;98510.00;;;33.80
11321;BMP180;5715;48.234;14.320;2023-07-22T12:06:43;98500.00;;;33.90
11321;BMP180;5715;48.234;14.320;2023-07-22T12:09:31;98512.00;;;34.30
11321;BMP180;5715;48.234;14.320;2023-07-22T12:12:19;98506.00;;;33.70
11321;BMP180;5715;48.234;14.320;2023-07-22T12:15:13;98507.00;;;33.60
11321;BMP180;5715;48.234;14.320;2023-07-22T12:18:03;98504.00;;;34.30
11321;BMP180;5715;48.234;14.320;2023-07-22T12:20:51;98502.00;;;33.70
11321;BMP180;5715;48.234;14.320;2023-07-22T12:23:41;98512.00;;;33.60
11321;BMP180;5715;48.234;14.320;2023-07-22T12:26:29;98505.00;;;33.30
11321;BMP180;5715;48.234;14.320;2023-07-22T12:29:17;98498.00;;;33.90
11321;BMP180;5715;48.234;14.320;2023-07-22T12:32:05;98493.00;;;34.00
11321;BMP180;5715;48.234;14.320;2023-07-22T12:34:53;98499.00;;;34.40
11321;BMP180;5715;48.234;14.320;2023-07-22T12:37:41;98495.00;;;34.70
11321;BMP180;5715;48.234;14.320;2023-07-22T12:40:28;98477.00;;;32.60
11321;BMP180;5715;48.234;14.320;2023-07-22T12:43:16;98483.00;;;33.30
11321;BMP180;5715;48.234;14.320;2023-07-22T12:46:03;98478.00;;;34.50
11321;BMP180;5715;48.234;14.320;2023-07-22T12:48:51;98477.00;;;34.30
11321;BMP180;5715;48.234;14.320;2023-07-22T12:51:39;98477.00;;;34.40
11321;BMP180;5715;48.234;14.320;2023-07-22T12:54:26;98474.00;;;34.50
11321;BMP180;5715;48.234;14.320;2023-07-22T12:57:14;98464.00;;;34.40
11321;BMP180;5715;48.234;14.320;2023-07-22T13:00:01;98463.00;;;35.30
11321;BMP180;5715;48.234;14.320;2023-07-22T13:02:52;98455.00;;;34.90
11321;BMP180;5715;48.234;14.320;2023-07-22T13:05:40;98456.00;;;35.10
11321;BMP180;5715;48.234;14.320;2023-07-22T13:08:27;98456.00;;;34.70
11321;BMP180;5715;48.234;14.320;2023-07-22T13:11:15;98461.00;;;34.10
11321;BMP180;5715;48.234;14.320;2023-07-22T13:14:02;98458.00;;;34.60
11321;BMP180;5715;48.234;14.320;2023-07-22T13:16:50;98456.00;;;33.90
11321;BMP180;5715;48.234;14.320;2023-07-22T13:19:38;98453.00;;;34.20
11321;BMP180;5715;48.234;14.320;2023-07-22T13:22:25;98448.00;;;33.80
11321;BMP180;5715;48.234;14.320;2023-07-22T13:25:13;98446.00;;;34.00
11321;BMP180;5715;48.234;14.320;2023-07-22T13:28:00;98441.00;;;33.80
11321;BMP180;5715;48.234;14.320;2023-07-22T13:30:49;98448.00;;;34.90
11321;BMP180;5715;48.234;14.320;2023-07-22T13:33:36;98447.00;;;34.40
11321;BMP180;5715;48.234;14.320;2023-07-22T13:36:24;98453.00;;;34.10
11321;BMP180;5715;48.234;14.320;2023-07-22T13:39:11;98457.00;;;33.50
11321;BMP180;5715;48.234;14.320;2023-07-22T13:41:59;98459.00;;;33.30
11321;BMP180;5715;48.234;14.320;2023-07-22T13:44:47;98453.00;;;33.70
11321;BMP180;5715;48.234;14.320;2023-07-22T13:47:34;98455.00;;;33.50
11321;BMP180;5715;48.234;14.320;2023-07-22T13:50:22;98458.00;;;33.90
11321;BMP180;5715;48.234;14.320;2023-07-22T13:53:09;98444.00;;;33.90
11321;BMP180;5715;48.234;14.320;2023-07-22T13:55:57;98444.00;;;34.20
11321;BMP180;5715;48.234;14.320;2023-07-22T13:58:44;98441.00;;;34.80
11321;BMP180;5715;48.234;14.320;2023-07-22T14:01:32;98438.00;;;34.30
11321;BMP180;5715;48.234;14.320;2023-07-22T14:04:19;98447.00;;;33.70
11321;BMP180;5715;48.234;14.320;2023-07-22T14:07:07;98450.00;;;33.30
11321;BMP180;5715;48.234;14.320;2023-07-22T14:09:55;98440.00;;;33.90
11321;BMP180;5715;48.234;14.320;2023-07-22T14:12:42;98442.00;;;34.40
11321;BMP180;5715;48.234;14.320;2023-07-22T14:15:30;98440.00;;;34.20
11321;BMP180;5715;48.234;14.320;2023-07-22T14:18:19;98434.00;;;34.30
11321;BMP180;5715;48.234;14.320;2023-07-22T14:21:07;98426.00;;;34.30
11321;BMP180;5715;48.234;14.320;2023-07-22T14:23:55;98428.00;;;33.70
11321;BMP180;5715;48.234;14.320;2023-07-22T14:26:42;98428.00;;;34.70
11321;BMP180;5715;48.234;14.320;2023-07-22T14:29:30;98431.00;;;34.00
11321;BMP180;5715;48.234;14.320;2023-07-22T14:32:17;98422.00;;;33.80
11321;BMP180;5715;48.234;14.320;2023-07-22T14:35:06;98430.00;;;33.70
11321;BMP180;5715;48.234;14.320;2023-07-22T14:37:53;98417.00;;;33.90
11321;BMP180;5715;48.234;14.320;2023-07-22T14:40:41;98419.00;;;33.80
11321;BMP180;5715;48.234;14.320;2023-07-22T14:43:28;98412.00;;;34.00
11321;BMP180;5715;48.234;14.320;2023-07-22T14:46:16;98416.00;;;34.70
11321;BMP180;5715;48.234;14.320;2023-07-22T14:49:05;98410.00;;;34.70
11321;BMP180;5715;48.234;14.320;2023-07-22T14:51:57;98412.00;;;34.50
11321;BMP180;5715;48.234;14.320;2023-07-22T14:54:45;98415.00;;;34.80
11321;BMP180;5715;48.234;14.320;2023-07-22T14:57:32;98417.00;;;34.60
11321;BMP180;5715;48.234;14.320;2023-07-22T15:00:20;98416.00;;;34.20
11321;BMP180;5715;48.234;14.320;2023-07-22T15:03:07;98419.00;;;34.40
11321;BMP180;5715;48.234;14.320;2023-07-22T15:05:55;98418.00;;;34.10
11321;BMP180;5715;48.234;14.320;2023-07-22T15:08:43;98421.00;;;34.50
11321;BMP180;5715;48.234;14.320;2023-07-22T15:11:30;98406.00;;;34.50
11321;BMP180;5715;48.234;14.320;2023-07-22T15:14:18;98402.00;;;34.90
11321;BMP180;5715;48.234;14.320;2023-07-22T15:17:06;98400.00;;;34.40
11321;BMP180;5715;48.234;14.320;2023-07-22T15:19:53;98402.00;;;34.50
11321;BMP180;5715;48.234;14.320;2023-07-22T15:22:41;98405.00;;;34.90
11321;BMP180;5715;48.234;14.320;2023-07-22T15:25:28;98392.00;;;34.60
11321;BMP180;5715;48.234;14.320;2023-07-22T15:28:16;98398.00;;;34.60
11321;BMP180;5715;48.234;14.320;2023-07-22T15:31:03;98404.00;;;34.40
11321;BMP180;5715;48.234;14.320;2023-07-22T15:33:51;98399.00;;;35.00
11321;BMP180;5715;48.234;14.320;2023-07-22T15:36:39;98400.00;;;35.00
11321;BMP180;5715;48.234;14.320;2023-07-22T15:39:26;98391.00;;;35.10
11321;BMP180;5715;48.234;14.320;2023-07-22T15:42:15;98390.00;;;35.10
11321;BMP180;5715;48.234;14.320;2023-07-22T15:45:03;98397.00;;;35.60
11321;BMP180;5715;48.234;14.320;2023-07-22T15:47:51;98395.00;;;35.70
11321;BMP180;5715;48.234;14.320;2023-07-22T15:50:38;98387.00;;;35.60
11321;BMP180;5715;48.234;14.320;2023-07-22T15:53:26;98386.00;;;35.90
11321;BMP180;5715;48.234;14.320;2023-07-22T15:56:13;98383.00;;;35.70
11321;BMP180;5715;48.234;14.320;2023-07-22T15:59:01;98378.00;;;35.90
11321;BMP180;5715;48.234;14.320;2023-07-22T16:01:48;98389.00;;;36.10
11321;BMP180;5715;48.234;14.320;2023-07-22T16:04:36;98380.00;;;36.10
11321;BMP180;5715;48.234;14.320;2023-07-22T16:07:24;98381.00;;;36.40
11321;BMP180;5715;48.234;14.320;2023-07-22T16:10:12;98380.00;;;36.20
11321;BMP180;5715;48.234;14.320;2023-07-22T16:13:00;98384.00;;;35.90
11321;BMP180;5715;48.234;14.320;2023-07-22T16:15:47;98383.00;;;36.30
11321;BMP180;5715;48.234;14.320;2023-07-22T16:18:35;98385.00;;;35.10